sensor_id;sensor_type;location;lat;lon;timestamp;pressure;altitude;pressure_sealevel;temperature
37536;BMP180;23379;51.554;6.736;2022-08-21T00:01:50;101223.00;;;17.70
37536;BMP180;23379;51.554;6.736;2022-08-21T00:04:16;101220.00;;;17.70
37536;BMP180;23379;51.554;6.736;2022-08-21T00:06:41;101220.00;;;17.60
37536;BMP180;23379;51.554;6.736;2022-08-21T00:09:07;101219.00;;;17.70
37536;BMP180;23379;51.554;6.736;2022-08-21T00:11:34;101220.00;;;17.60
37536;BMP180;23379;51.554;6.736;2022-08-21T00:14:00;101209.00;;;17.40
37536;BMP180;23379;51.554;6.736;2022-08-21T00:16:25;101210.00;;;17.40
37536;BMP180;23379;51.554;6.736;2022-08-21T00:18:50;101205.00;;;17.30
37536;BMP180;23379;51.554;6.736;2022-08-21T00:21:16;101202.00;;;17.30
37536;BMP180;23379;51.554;6.736;2022-08-21T00:23:41;101198.00;;;17.20
37536;BMP180;23379;51.554;6.736;2022-08-21T00:26:06;101198.00;;;17.20
37536;BMP180;23379;51.554;6.736;2022-08-21T00:28:32;101197.00;;;17.10
37536;BMP180;23379;51.554;6.736;2022-08-21T00:30:57;101191.00;;;17.00
37536;BMP180;23379;51.554;6.736;2022-08-21T00:33:23;101197.00;;;17.10
37536;BMP180;23379;51.554;6.736;2022-08-21T00:35:48;101191.00;;;17.00
37536;BMP180;23379;51.554;6.736;2022-08-21T00:38:14;101190.00;;;16.90
37536;BMP180;23379;51.554;6.736;2022-08-21T00:40:47;101196.00;;;16.90
37536;BMP180;23379;51.554;6.736;2022-08-21T00:43:14;101188.00;;;16.90
37536;BMP180;23379;51.554;6.736;2022-08-21T00:45:39;101190.00;;;16.90
37536;BMP180;23379;51.554;6.736;2022-08-21T00:48:05;101181.00;;;16.70
37536;BMP180;23379;51.554;6.736;2022-08-21T00:50:31;101186.00;;;16.70
37536;BMP180;23379;51.554;6.736;2022-08-21T00:52:57;101190.00;;;16.60
37536;BMP180;23379;51.554;6.736;2022-08-21T00:55:23;101180.00;;;16.60
37536;BMP180;23379;51.554;6.736;2022-08-21T00:57:50;101175.00;;;16.60
37536;BMP180;23379;51.554;6.736;2022-08-21T01:00:17;101183.00;;;16.40
37536;BMP180;23379;51.554;6.736;2022-08-21T01:02:44;101182.00;;;16.50
37536;BMP180;23379;51.554;6.736;2022-08-21T01:05:09;101183.00;;;16.50
37536;BMP180;23379;51.554;6.736;2022-08-21T01:07:35;101184.00;;;16.50
37536;BMP180;23379;51.554;6.736;2022-08-21T01:10:01;101181.00;;;16.40
37536;BMP180;23379;51.554;6.736;2022-08-21T01:12:26;101179.00;;;16.30
37536;BMP180;23379;51.554;6.736;2022-08-21T01:14:52;101187.00;;;16.40
37536;BMP180;23379;51.554;6.736;2022-08-21T01:17:18;101187.00;;;16.40
37536;BMP180;23379;51.554;6.736;2022-08-21T01:19:44;101191.00;;;16.40
37536;BMP180;23379;51.554;6.736;2022-08-21T01:22:09;101188.00;;;16.30
37536;BMP180;23379;51.554;6.736;2022-08-21T01:24:35;101198.00;;;16.30
37536;BMP180;23379;51.554;6.736;2022-08-21T01:27:00;101196.00;;;16.30
37536;BMP180;23379;51.554;6.736;2022-08-21T01:29:39;101192.00;;;16.30
37536;BMP180;23379;51.554;6.736;2022-08-21T01:32:07;101186.00;;;16.40
37536;BMP180;23379;51.554;6.736;2022-08-21T01:34:33;101186.00;;;16.20
37536;BMP180;23379;51.554;6.736;2022-08-21T01:36:59;101196.00;;;16.10
37536;BMP180;23379;51.554;6.736;2022-08-21T01:39:24;101189.00;;;16.10
37536;BMP180;23379;51.554;6.736;2022-08-21T01:41:49;101186.00;;;16.00
37536;BMP180;23379;51.554;6.736;2022-08-21T01:44:15;101186.00;;;16.00
37536;BMP180;23379;51.554;6.736;2022-08-21T01:46:40;101197.00;;;15.90
37536;BMP180;23379;51.554;6.736;2022-08-21T01:49:05;101193.00;;;15.80
37536;BMP180;23379;51.554;6.736;2022-08-21T01:51:31;101185.00;;;15.90
37536;BMP180;23379;51.554;6.736;2022-08-21T01:53:56;101189.00;;;15.80
37536;BMP180;23379;51.554;6.736;2022-08-21T01:56:21;101180.00;;;15.90
37536;BMP180;23379;51.554;6.736;2022-08-21T01:58:47;101183.00;;;15.80
37536;BMP180;23379;51.554;6.736;2022-08-21T02:01:13;101179.00;;;15.80
37536;BMP180;23379;51.554;6.736;2022-08-21T02:03:38;101180.00;;;15.80
37536;BMP180;23379;51.554;6.736;2022-08-21T02:06:04;101182.00;;;15.80
37536;BMP180;23379;51.554;6.736;2022-08-21T02:08:30;101178.00;;;15.70
37536;BMP180;23379;51.554;6.736;2022-08-21T02:10:55;101173.00;;;15.80
37536;BMP180;23379;51.554;6.736;2022-08-21T02:13:21;101166.00;;;15.80
37536;BMP180;23379;51.554;6.736;2022-08-21T02:15:46;101170.00;;;15.70
37536;BMP180;23379;51.554;6.736;2022-08-21T02:18:11;101176.00;;;15.80
37536;BMP180;23379;51.554;6.736;2022-08-21T02:20:38;101173.00;;;15.70
37536;BMP180;23379;51.554;6.736;2022-08-21T02:23:04;101170.00;;;15.60
37536;BMP180;23379;51.554;6.736;2022-08-21T02:25:30;101168.00;;;15.70
37536;BMP180;23379;51.554;6.736;2022-08-21T02:27:55;101171.00;;;15.70
37536;BMP180;23379;51.554;6.736;2022-08-21T02:30:22;101164.00;;;15.60
37536;BMP180;23379;51.554;6.736;2022-08-21T02:32:48;101171.00;;;15.80
37536;BMP180;23379;51.554;6.736;2022-08-21T02:35:13;101174.00;;;15.90
37536;BMP180;23379;51.554;6.736;2022-08-21T02:37:46;101165.00;;;15.90
37536;BMP180;23379;51.554;6.736;2022-08-21T02:40:11;101168.00;;;16.00
37536;BMP180;23379;51.554;6.736;2022-08-21T02:42:37;101169.00;;;15.90
37536;BMP180;23379;51.554;6.736;2022-08-21T02:45:03;101167.00;;;15.90
37536;BMP180;23379;51.554;6.736;2022-08-21T02:47:29;101171.00;;;15.80
37536;BMP180;23379;51.554;6.736;2022-08-21T02:49:54;101173.00;;;15.70
37536;BMP180;23379;51.554;6.736;2022-08-21T02:52:19;101162.00;;;15.80
37536;BMP180;23379;51.554;6.736;2022-08-21T02:54:46;101162.00;;;16.00
37536;BMP180;23379;51.554;6.736;2022-08-21T02:57:12;101160.00;;;15.90
37536;BMP180;23379;51.554;6.736;2022-08-21T02:59:37;101162.00;;;15.80
37536;BMP180;23379;51.554;6.736;2022-08-21T03:02:02;101165.00;;;15.60
37536;BMP180;23379;51.554;6.736;2022-08-21T03:04:28;101158.00;;;15.70
37536;BMP180;23379;51.554;6.736;2022-08-21T03:06:53;101164.00;;;15.60
37536;BMP180;23379;51.554;6.736;2022-08-21T03:09:18;101150.00;;;15.60
37536;BMP180;23379;51.554;6.736;2022-08-21T03:11:43;101158.00;;;15.50
37536;BMP180;23379;51.554;6.736;2022-08-21T03:14:09;101157.00;;;15.50
37536;BMP180;23379;51.554;6.736;2022-08-21T03:16:34;101159.00;;;15.60
37536;BMP180;23379;51.554;6.736;2022-08-21T03:19:00;101155.00;;;15.40
37536;BMP180;23379;51.554;6.736;2022-08-21T03:21:25;101159.00;;;15.50
37536;BMP180;23379;51.554;6.736;2022-08-21T03:23:50;101153.00;;;15.40
37536;BMP180;23379;51.554;6.736;2022-08-21T03:26:16;101160.00;;;15.40
37536;BMP180;23379;51.554;6.736;2022-08-21T03:28:42;101164.00;;;15.60
37536;BMP180;23379;51.554;6.736;2022-08-21T03:31:07;101159.00;;;15.50
37536;BMP180;23379;51.554;6.736;2022-08-21T03:33:33;101153.00;;;15.50
37536;BMP180;23379;51.554;6.736;2022-08-21T03:36:05;101159.00;;;15.40
37536;BMP180;23379;51.554;6.736;2022-08-21T03:38:31;101154.00;;;15.30
37536;BMP180;23379;51.554;6.736;2022-08-21T03:40:58;101157.00;;;15.30
37536;BMP180;23379;51.554;6.736;2022-08-21T03:43:23;101155.00;;;15.20
37536;BMP180;23379;51.554;6.736;2022-08-21T03:45:49;101162.00;;;15.20
37536;BMP180;23379;51.554;6.736;2022-08-21T03:48:14;101153.00;;;15.20
37536;BMP180;23379;51.554;6.736;2022-08-21T03:50:40;101149.00;;;15.20
37536;BMP180;23379;51.554;6.736;2022-08-21T03:53:06;101159.00;;;15.20
37536;BMP180;23379;51.554;6.736;2022-08-21T03:55:31;101158.00;;;15.20
37536;BMP180;23379;51.554;6.736;2022-08-21T03:57:56;101151.00;;;15.10
37536;BMP180;23379;51.554;6.736;2022-08-21T04:00:22;101155.00;;;15.10
37536;BMP180;23379;51.554;6.736;2022-08-21T04:02:47;101157.00;;;15.10
37536;BMP180;23379;51.554;6.736;2022-08-21T04:05:13;101160.00;;;15.10
37536;BMP180;23379;51.554;6.736;2022-08-21T04:07:38;101162.00;;;15.10
37536;BMP180;23379;51.554;6.736;2022-08-21T04:10:05;101164.00;;;14.90
37536;BMP180;23379;51.554;6.736;2022-08-21T04:12:31;101169.00;;;15.10
37536;BMP180;23379;51.554;6.736;2022-08-21T04:14:56;101168.00;;;15.10
37536;BMP180;23379;51.554;6.736;2022-08-21T04:17:21;101172.00;;;15.20
37536;BMP180;23379;51.554;6.736;2022-08-21T04:19:47;101175.00;;;15.30
37536;BMP180;23379;51.554;6.736;2022-08-21T04:22:12;101176.00;;;15.40
37536;BMP180;23379;51.554;6.736;2022-08-21T04:24:37;101173.00;;;15.30
37536;BMP180;23379;51.554;6.736;2022-08-21T04:27:03;101169.00;;;15.40
37536;BMP180;23379;51.554;6.736;2022-08-21T04:29:28;101174.00;;;15.40
37536;BMP180;23379;51.554;6.736;2022-08-21T04:31:53;101170.00;;;15.50
37536;BMP180;23379;51.554;6.736;2022-08-21T04:34:19;101169.00;;;15.40
37536;BMP180;23379;51.554;6.736;2022-08-21T04:36:44;101165.00;;;15.30
37536;BMP180;23379;51.554;6.736;2022-08-21T04:39:10;101169.00;;;15.30
37536;BMP180;23379;51.554;6.736;2022-08-21T04:41:35;101169.00;;;15.40
37536;BMP180;23379;51.554;6.736;2022-08-21T04:44:01;101166.00;;;15.40
37536;BMP180;23379;51.554;6.736;2022-08-21T04:46:27;101175.00;;;15.50
37536;BMP180;23379;51.554;6.736;2022-08-21T04:48:53;101174.00;;;15.50
37536;BMP180;23379;51.554;6.736;2022-08-21T04:51:25;101169.00;;;15.50
37536;BMP180;23379;51.554;6.736;2022-08-21T04:53:56;101177.00;;;15.60
37536;BMP180;23379;51.554;6.736;2022-08-21T04:56:28;101174.00;;;15.60
37536;BMP180;23379;51.554;6.736;2022-08-21T04:58:55;101169.00;;;15.70
37536;BMP180;23379;51.554;6.736;2022-08-21T05:01:22;101172.00;;;15.60
37536;BMP180;23379;51.554;6.736;2022-08-21T05:03:49;101172.00;;;15.60
37536;BMP180;23379;51.554;6.736;2022-08-21T05:06:16;101169.00;;;15.80
37536;BMP180;23379;51.554;6.736;2022-08-21T05:08:42;101171.00;;;15.90
37536;BMP180;23379;51.554;6.736;2022-08-21T05:11:08;101167.00;;;15.90
37536;BMP180;23379;51.554;6.736;2022-08-21T05:13:34;101169.00;;;16.10
37536;BMP180;23379;51.554;6.736;2022-08-21T05:16:00;101165.00;;;16.00
37536;BMP180;23379;51.554;6.736;2022-08-21T05:18:25;101172.00;;;16.20
37536;BMP180;23379;51.554;6.736;2022-08-21T05:20:50;101174.00;;;16.20
37536;BMP180;23379;51.554;6.736;2022-08-21T05:23:16;101170.00;;;16.00
37536;BMP180;23379;51.554;6.736;2022-08-21T05:25:41;101176.00;;;16.30
37536;BMP180;23379;51.554;6.736;2022-08-21T05:28:09;101181.00;;;16.30
37536;BMP180;23379;51.554;6.736;2022-08-21T05:30:34;101180.00;;;16.40
37536;BMP180;23379;51.554;6.736;2022-08-21T05:33:00;101181.00;;;16.50
37536;BMP180;23379;51.554;6.736;2022-08-21T05:35:29;101178.00;;;16.70
37536;BMP180;23379;51.554;6.736;2022-08-21T05:37:55;101179.00;;;17.00
37536;BMP180;23379;51.554;6.736;2022-08-21T05:40:21;101173.00;;;17.40
37536;BMP180;23379;51.554;6.736;2022-08-21T05:42:46;101177.00;;;17.20
37536;BMP180;23379;51.554;6.736;2022-08-21T05:45:12;101170.00;;;17.20
37536;BMP180;23379;51.554;6.736;2022-08-21T05:47:37;101175.00;;;17.00
37536;BMP180;23379;51.554;6.736;2022-08-21T05:50:02;101174.00;;;16.70
37536;BMP180;23379;51.554;6.736;2022-08-21T05:52:28;101185.00;;;16.80
37536;BMP180;23379;51.554;6.736;2022-08-21T05:54:54;101169.00;;;16.80
37536;BMP180;23379;51.554;6.736;2022-08-21T05:57:20;101170.00;;;16.90
37536;BMP180;23379;51.554;6.736;2022-08-21T05:59:45;101174.00;;;17.00
37536;BMP180;23379;51.554;6.736;2022-08-21T06:02:10;101179.00;;;17.00
37536;BMP180;23379;51.554;6.736;2022-08-21T06:04:36;101190.00;;;16.70
37536;BMP180;23379;51.554;6.736;2022-08-21T06:07:02;101188.00;;;16.80
37536;BMP180;23379;51.554;6.736;2022-08-21T06:09:27;101181.00;;;17.10
37536;BMP180;23379;51.554;6.736;2022-08-21T06:11:52;101181.00;;;17.10
37536;BMP180;23379;51.554;6.736;2022-08-21T06:14:18;101183.00;;;16.80
37536;BMP180;23379;51.554;6.736;2022-08-21T06:16:43;101182.00;;;16.80
37536;BMP180;23379;51.554;6.736;2022-08-21T06:19:08;101187.00;;;17.10
37536;BMP180;23379;51.554;6.736;2022-08-21T06:21:33;101188.00;;;17.00
37536;BMP180;23379;51.554;6.736;2022-08-21T06:23:59;101183.00;;;17.30
37536;BMP180;23379;51.554;6.736;2022-08-21T06:26:24;101191.00;;;17.30
37536;BMP180;23379;51.554;6.736;2022-08-21T06:28:49;101186.00;;;18.40
37536;BMP180;23379;51.554;6.736;2022-08-21T06:31:16;101190.00;;;19.60
37536;BMP180;23379;51.554;6.736;2022-08-21T06:33:41;101191.00;;;19.10
37536;BMP180;23379;51.554;6.736;2022-08-21T06:36:07;101190.00;;;18.40
37536;BMP180;23379;51.554;6.736;2022-08-21T06:38:32;101189.00;;;18.50
37536;BMP180;23379;51.554;6.736;2022-08-21T06:40:58;101188.00;;;18.30
37536;BMP180;23379;51.554;6.736;2022-08-21T06:43:23;101179.00;;;18.20
37536;BMP180;23379;51.554;6.736;2022-08-21T06:45:48;101183.00;;;18.50
37536;BMP180;23379;51.554;6.736;2022-08-21T06:48:14;101186.00;;;18.50
37536;BMP180;23379;51.554;6.736;2022-08-21T06:50:39;101181.00;;;18.40
37536;BMP180;23379;51.554;6.736;2022-08-21T06:53:09;101190.00;;;18.20
37536;BMP180;23379;51.554;6.736;2022-08-21T06:55:35;101182.00;;;18.20
37536;BMP180;23379;51.554;6.736;2022-08-21T06:58:01;101190.00;;;18.40
37536;BMP180;23379;51.554;6.736;2022-08-21T07:00:33;101187.00;;;18.40
37536;BMP180;23379;51.554;6.736;2022-08-21T07:03:02;101184.00;;;18.50
37536;BMP180;23379;51.554;6.736;2022-08-21T07:05:33;101190.00;;;18.70
37536;BMP180;23379;51.554;6.736;2022-08-21T07:07:58;101188.00;;;18.40
37536;BMP180;23379;51.554;6.736;2022-08-21T07:10:24;101193.00;;;18.90
37536;BMP180;23379;51.554;6.736;2022-08-21T07:12:50;101198.00;;;19.20
37536;BMP180;23379;51.554;6.736;2022-08-21T07:15:21;101201.00;;;19.40
37536;BMP180;23379;51.554;6.736;2022-08-21T07:17:46;101193.00;;;19.40
37536;BMP180;23379;51.554;6.736;2022-08-21T07:20:11;101196.00;;;19.70
37536;BMP180;23379;51.554;6.736;2022-08-21T07:22:38;101199.00;;;20.10
37536;BMP180;23379;51.554;6.736;2022-08-21T07:25:04;101197.00;;;20.00
37536;BMP180;23379;51.554;6.736;2022-08-21T07:27:30;101196.00;;;19.70
37536;BMP180;23379;51.554;6.736;2022-08-21T07:29:56;101199.00;;;19.90
37536;BMP180;23379;51.554;6.736;2022-08-21T07:32:21;101205.00;;;19.50
37536;BMP180;23379;51.554;6.736;2022-08-21T07:34:46;101201.00;;;19.90
37536;BMP180;23379;51.554;6.736;2022-08-21T07:37:12;101200.00;;;20.30
37536;BMP180;23379;51.554;6.736;2022-08-21T07:39:37;101195.00;;;20.40
37536;BMP180;23379;51.554;6.736;2022-08-21T07:42:02;101200.00;;;20.70
37536;BMP180;23379;51.554;6.736;2022-08-21T07:44:28;101205.00;;;21.60
37536;BMP180;23379;51.554;6.736;2022-08-21T07:46:53;101209.00;;;22.10
37536;BMP180;23379;51.554;6.736;2022-08-21T07:49:18;101208.00;;;22.40
37536;BMP180;23379;51.554;6.736;2022-08-21T07:51:53;101201.00;;;21.70
37536;BMP180;23379;51.554;6.736;2022-08-21T07:54:18;101202.00;;;22.10
37536;BMP180;23379;51.554;6.736;2022-08-21T07:56:44;101196.00;;;21.90
37536;BMP180;23379;51.554;6.736;2022-08-21T07:59:09;101196.00;;;21.70
37536;BMP180;23379;51.554;6.736;2022-08-21T08:01:34;101193.00;;;21.80
37536;BMP180;23379;51.554;6.736;2022-08-21T08:03:59;101195.00;;;21.70
37536;BMP180;23379;51.554;6.736;2022-08-21T08:06:25;101201.00;;;21.90
37536;BMP180;23379;51.554;6.736;2022-08-21T08:08:51;101194.00;;;22.50
37536;BMP180;23379;51.554;6.736;2022-08-21T08:11:16;101193.00;;;24.00
37536;BMP180;23379;51.554;6.736;2022-08-21T08:13:42;101191.00;;;24.30
37536;BMP180;23379;51.554;6.736;2022-08-21T08:16:08;101196.00;;;25.40
37536;BMP180;23379;51.554;6.736;2022-08-21T08:18:33;101197.00;;;25.80
37536;BMP180;23379;51.554;6.736;2022-08-21T08:20:59;101197.00;;;26.30
37536;BMP180;23379;51.554;6.736;2022-08-21T08:23:24;101193.00;;;27.30
37536;BMP180;23379;51.554;6.736;2022-08-21T08:25:50;101199.00;;;28.20
37536;BMP180;23379;51.554;6.736;2022-08-21T08:28:15;101195.00;;;28.40
37536;BMP180;23379;51.554;6.736;2022-08-21T08:30:41;101200.00;;;28.30
37536;BMP180;23379;51.554;6.736;2022-08-21T08:33:07;101206.00;;;28.80
37536;BMP180;23379;51.554;6.736;2022-08-21T08:35:32;101199.00;;;27.60
37536;BMP180;23379;51.554;6.736;2022-08-21T08:37:58;101205.00;;;28.00
37536;BMP180;23379;51.554;6.736;2022-08-21T08:42:48;101201.00;;;28.10
37536;BMP180;23379;51.554;6.736;2022-08-21T08:45:16;101200.00;;;28.90
37536;BMP180;23379;51.554;6.736;2022-08-21T08:47:45;101201.00;;;28.40
37536;BMP180;23379;51.554;6.736;2022-08-21T08:50:12;101208.00;;;28.40
37536;BMP180;23379;51.554;6.736;2022-08-21T08:55:42;101197.00;;;27.40
37536;BMP180;23379;51.554;6.736;2022-08-21T08:58:09;101203.00;;;28.20
37536;BMP180;23379;51.554;6.736;2022-08-21T09:00:37;101201.00;;;27.90
37536;BMP180;23379;51.554;6.736;2022-08-21T09:03:03;101201.00;;;27.60
37536;BMP180;23379;51.554;6.736;2022-08-21T09:10:55;101197.00;;;29.20
37536;BMP180;23379;51.554;6.736;2022-08-21T09:13:30;101186.00;;;29.40
37536;BMP180;23379;51.554;6.736;2022-08-21T09:16:31;101180.00;;;29.60
37536;BMP180;23379;51.554;6.736;2022-08-21T09:18:54;101187.00;;;29.90
37536;BMP180;23379;51.554;6.736;2022-08-21T09:22:13;101194.00;;;30.50
37536;BMP180;23379;51.554;6.736;2022-08-21T09:26:54;101195.00;;;29.90
37536;BMP180;23379;51.554;6.736;2022-08-21T09:29:22;101186.00;;;29.10
37536;BMP180;23379;51.554;6.736;2022-08-21T09:31:48;101185.00;;;29.70
37536;BMP180;23379;51.554;6.736;2022-08-21T09:34:23;101189.00;;;30.20
37536;BMP180;23379;51.554;6.736;2022-08-21T09:36:49;101186.00;;;30.90
37536;BMP180;23379;51.554;6.736;2022-08-21T09:39:48;101182.00;;;31.40
37536;BMP180;23379;51.554;6.736;2022-08-21T09:42:07;101180.00;;;32.40
37536;BMP180;23379;51.554;6.736;2022-08-21T09:44:35;101192.00;;;32.10
37536;BMP180;23379;51.554;6.736;2022-08-21T09:47:04;101192.00;;;31.90
37536;BMP180;23379;51.554;6.736;2022-08-21T09:49:30;101191.00;;;33.10
37536;BMP180;23379;51.554;6.736;2022-08-21T09:51:56;101191.00;;;33.60
37536;BMP180;23379;51.554;6.736;2022-08-21T09:54:24;101191.00;;;33.10
37536;BMP180;23379;51.554;6.736;2022-08-21T09:59:36;101183.00;;;29.40
37536;BMP180;23379;51.554;6.736;2022-08-21T10:04:50;101176.00;;;30.00
37536;BMP180;23379;51.554;6.736;2022-08-21T10:07:19;101174.00;;;29.60
37536;BMP180;23379;51.554;6.736;2022-08-21T10:09:45;101168.00;;;30.50
37536;BMP180;23379;51.554;6.736;2022-08-21T10:12:20;101164.00;;;30.50
37536;BMP180;23379;51.554;6.736;2022-08-21T10:20:04;101176.00;;;32.40
37536;BMP180;23379;51.554;6.736;2022-08-21T10:25:22;101175.00;;;33.20
37536;BMP180;23379;51.554;6.736;2022-08-21T10:28:13;101176.00;;;32.90
37536;BMP180;23379;51.554;6.736;2022-08-21T10:35:41;101176.00;;;31.20
37536;BMP180;23379;51.554;6.736;2022-08-21T10:41:00;101168.00;;;32.20
37536;BMP180;23379;51.554;6.736;2022-08-21T10:43:30;101171.00;;;32.60
37536;BMP180;23379;51.554;6.736;2022-08-21T10:48:47;101172.00;;;32.80
37536;BMP180;23379;51.554;6.736;2022-08-21T10:53:50;101180.00;;;33.70
37536;BMP180;23379;51.554;6.736;2022-08-21T10:56:21;101170.00;;;32.10
37536;BMP180;23379;51.554;6.736;2022-08-21T11:01:53;101173.00;;;31.80
37536;BMP180;23379;51.554;6.736;2022-08-21T11:04:21;101167.00;;;31.30
37536;BMP180;23379;51.554;6.736;2022-08-21T11:06:53;101163.00;;;32.40
37536;BMP180;23379;51.554;6.736;2022-08-21T11:09:25;101157.00;;;31.50
37536;BMP180;23379;51.554;6.736;2022-08-21T11:11:59;101164.00;;;30.20
37536;BMP180;23379;51.554;6.736;2022-08-21T11:17:00;101167.00;;;30.10
37536;BMP180;23379;51.554;6.736;2022-08-21T11:19:32;101173.00;;;29.70
37536;BMP180;23379;51.554;6.736;2022-08-21T11:22:02;101173.00;;;30.40
37536;BMP180;23379;51.554;6.736;2022-08-21T11:24:38;101173.00;;;31.20
37536;BMP180;23379;51.554;6.736;2022-08-21T11:27:07;101167.00;;;31.10
37536;BMP180;23379;51.554;6.736;2022-08-21T11:29:36;101173.00;;;31.30
37536;BMP180;23379;51.554;6.736;2022-08-21T11:33:03;101165.00;;;31.90
37536;BMP180;23379;51.554;6.736;2022-08-21T11:35:07;101158.00;;;32.20
37536;BMP180;23379;51.554;6.736;2022-08-21T11:40:12;101165.00;;;32.10
37536;BMP180;23379;51.554;6.736;2022-08-21T11:48:07;101167.00;;;33.70
37536;BMP180;23379;51.554;6.736;2022-08-21T11:50:35;101171.00;;;35.60
37536;BMP180;23379;51.554;6.736;2022-08-21T11:53:21;101173.00;;;35.50
37536;BMP180;23379;51.554;6.736;2022-08-21T11:56:12;101178.00;;;34.90
37536;BMP180;23379;51.554;6.736;2022-08-21T12:01:22;101166.00;;;32.40
37536;BMP180;23379;51.554;6.736;2022-08-21T12:03:59;101169.00;;;33.10
37536;BMP180;23379;51.554;6.736;2022-08-21T12:06:31;101161.00;;;32.30
37536;BMP180;23379;51.554;6.736;2022-08-21T12:08:59;101168.00;;;33.00
37536;BMP180;23379;51.554;6.736;2022-08-21T12:11:25;101162.00;;;34.20
37536;BMP180;23379;51.554;6.736;2022-08-21T12:13:58;101164.00;;;34.60
37536;BMP180;23379;51.554;6.736;2022-08-21T12:16:31;101159.00;;;33.20
37536;BMP180;23379;51.554;6.736;2022-08-21T12:19:07;101170.00;;;33.10
37536;BMP180;23379;51.554;6.736;2022-08-21T12:21:33;101166.00;;;33.10
37536;BMP180;23379;51.554;6.736;2022-08-21T12:26:29;101168.00;;;34.10
37536;BMP180;23379;51.554;6.736;2022-08-21T12:29:10;101163.00;;;33.10
37536;BMP180;23379;51.554;6.736;2022-08-21T12:31:36;101166.00;;;32.50
37536;BMP180;23379;51.554;6.736;2022-08-21T12:34:12;101168.00;;;32.60
37536;BMP180;23379;51.554;6.736;2022-08-21T12:36:44;101164.00;;;34.40
37536;BMP180;23379;51.554;6.736;2022-08-21T12:39:16;101156.00;;;33.00
37536;BMP180;23379;51.554;6.736;2022-08-21T12:42:01;101161.00;;;31.90
37536;BMP180;23379;51.554;6.736;2022-08-21T12:44:51;101158.00;;;32.00
37536;BMP180;23379;51.554;6.736;2022-08-21T12:47:43;101163.00;;;32.80
37536;BMP180;23379;51.554;6.736;2022-08-21T12:50:05;101154.00;;;32.10
37536;BMP180;23379;51.554;6.736;2022-08-21T12:52:34;101161.00;;;33.60
37536;BMP180;23379;51.554;6.736;2022-08-21T12:55:00;101156.00;;;33.50
37536;BMP180;23379;51.554;6.736;2022-08-21T12:57:26;101153.00;;;33.20
37536;BMP180;23379;51.554;6.736;2022-08-21T12:59:52;101158.00;;;33.90
37536;BMP180;23379;51.554;6.736;2022-08-21T13:02:19;101145.00;;;33.30
37536;BMP180;23379;51.554;6.736;2022-08-21T13:04:45;101150.00;;;32.70
37536;BMP180;23379;51.554;6.736;2022-08-21T13:07:12;101157.00;;;32.20
37536;BMP180;23379;51.554;6.736;2022-08-21T13:09:49;101158.00;;;32.10
37536;BMP180;23379;51.554;6.736;2022-08-21T13:12:15;101151.00;;;31.20
37536;BMP180;23379;51.554;6.736;2022-08-21T13:14:43;101151.00;;;30.30
37536;BMP180;23379;51.554;6.736;2022-08-21T13:17:09;101145.00;;;29.80
37536;BMP180;23379;51.554;6.736;2022-08-21T13:19:37;101151.00;;;31.70
37536;BMP180;23379;51.554;6.736;2022-08-21T13:22:03;101152.00;;;33.70
37536;BMP180;23379;51.554;6.736;2022-08-21T13:24:32;101146.00;;;33.10
37536;BMP180;23379;51.554;6.736;2022-08-21T13:26:58;101145.00;;;33.50
37536;BMP180;23379;51.554;6.736;2022-08-21T13:29:27;101140.00;;;33.20
37536;BMP180;23379;51.554;6.736;2022-08-21T13:31:55;101145.00;;;33.20
37536;BMP180;23379;51.554;6.736;2022-08-21T13:34:22;101146.00;;;33.00
37536;BMP180;23379;51.554;6.736;2022-08-21T13:36:48;101139.00;;;31.30
37536;BMP180;23379;51.554;6.736;2022-08-21T13:39:17;101135.00;;;31.10
37536;BMP180;23379;51.554;6.736;2022-08-21T13:41:44;101140.00;;;32.10
37536;BMP180;23379;51.554;6.736;2022-08-21T13:46:41;101136.00;;;33.00
37536;BMP180;23379;51.554;6.736;2022-08-21T13:49:06;101137.00;;;32.90
37536;BMP180;23379;51.554;6.736;2022-08-21T13:51:34;101132.00;;;31.80
37536;BMP180;23379;51.554;6.736;2022-08-21T13:54:00;101141.00;;;32.00
37536;BMP180;23379;51.554;6.736;2022-08-21T13:56:29;101139.00;;;31.10
37536;BMP180;23379;51.554;6.736;2022-08-21T13:58:56;101139.00;;;30.70
37536;BMP180;23379;51.554;6.736;2022-08-21T14:01:32;101141.00;;;30.20
37536;BMP180;23379;51.554;6.736;2022-08-21T14:04:01;101133.00;;;29.30
37536;BMP180;23379;51.554;6.736;2022-08-21T14:06:27;101139.00;;;28.20
37536;BMP180;23379;51.554;6.736;2022-08-21T14:09:07;101132.00;;;28.20
37536;BMP180;23379;51.554;6.736;2022-08-21T14:11:33;101139.00;;;28.00
37536;BMP180;23379;51.554;6.736;2022-08-21T14:14:00;101136.00;;;28.00
37536;BMP180;23379;51.554;6.736;2022-08-21T14:16:28;101134.00;;;27.80
37536;BMP180;23379;51.554;6.736;2022-08-21T14:21:33;101129.00;;;27.60
37536;BMP180;23379;51.554;6.736;2022-08-21T14:24:12;101133.00;;;28.10
37536;BMP180;23379;51.554;6.736;2022-08-21T14:26:48;101134.00;;;28.20
37536;BMP180;23379;51.554;6.736;2022-08-21T14:29:15;101126.00;;;28.80
37536;BMP180;23379;51.554;6.736;2022-08-21T14:31:41;101126.00;;;28.50
37536;BMP180;23379;51.554;6.736;2022-08-21T14:34:08;101132.00;;;28.20
37536;BMP180;23379;51.554;6.736;2022-08-21T14:36:34;101131.00;;;27.80
37536;BMP180;23379;51.554;6.736;2022-08-21T14:39:00;101128.00;;;28.40
37536;BMP180;23379;51.554;6.736;2022-08-21T14:41:25;101127.00;;;27.80
37536;BMP180;23379;51.554;6.736;2022-08-21T14:43:52;101125.00;;;27.90
37536;BMP180;23379;51.554;6.736;2022-08-21T14:46:21;101114.00;;;27.70
37536;BMP180;23379;51.554;6.736;2022-08-21T14:48:47;101110.00;;;28.00
37536;BMP180;23379;51.554;6.736;2022-08-21T14:51:12;101111.00;;;28.20
37536;BMP180;23379;51.554;6.736;2022-08-21T14:53:38;101110.00;;;28.30
37536;BMP180;23379;51.554;6.736;2022-08-21T14:56:03;101113.00;;;28.40
37536;BMP180;23379;51.554;6.736;2022-08-21T14:58:32;101112.00;;;28.20
37536;BMP180;23379;51.554;6.736;2022-08-21T15:00:58;101110.00;;;27.60
37536;BMP180;23379;51.554;6.736;2022-08-21T15:03:26;101105.00;;;27.20